Doonan Corners, New York
Current Conditions -  °F | °C
As of 1:55 AM on Saturday 25 Oct 2014 (Local Time) from KMSV Reporting Station
Clear Clear  
Wind Chill: 39°   Ceiling: Unl
Heat Index: 43°   Visibility: 10mi
Dew Point: 34°   Wind: 6mph
Humidity: 70%   Direction: 290°WNW
Pressure: 29.88"   Gusts: NA
Location:  42.3649°N, 74.7968°W
Report Text: KMSV 250555Z AUTO 29005KT 10SM CLR 06/01 A2988 RMK AO1 10110 20060 57003
Loading
Personal Weather Stations






























Interactive Weather Map
Tropical Storm Tracking
New forecast layout! Learn more

10-Day Weather Forecast

Advertisements
Track Severe Weather on mobile